sensor_id;sensor_type;location;lat;lon;timestamp;pressure;altitude;pressure_sealevel;temperature;humidity
45937;BME280;31649;46.510;6.498;2023-03-08T07:04:28;93926.59;;;2.88;58.97
45937;BME280;31649;46.510;6.498;2023-03-08T07:06:53;93926.47;;;2.72;59.03
45937;BME280;31649;46.510;6.498;2023-03-08T07:09:19;93928.22;;;2.71;59.04
45937;BME280;31649;46.510;6.498;2023-03-08T07:11:45;93925.94;;;2.68;58.97
45937;BME280;31649;46.510;6.498;2023-03-08T07:14:10;93914.06;;;2.67;59.42
45937;BME280;31649;46.510;6.498;2023-03-08T07:16:36;93913.53;;;2.82;59.15
45937;BME280;31649;46.510;6.498;2023-03-08T07:19:02;93914.75;;;2.96;59.21
45937;BME280;31649;46.510;6.498;2023-03-08T07:21:27;93918.56;;;3.10;58.83
45937;BME280;31649;46.510;6.498;2023-03-08T07:23:53;93909.66;;;3.22;58.74
45937;BME280;31649;46.510;6.498;2023-03-08T07:26:19;93898.34;;;3.42;58.44
45937;BME280;31649;46.510;6.498;2023-03-08T07:28:47;93911.50;;;3.65;58.46
45937;BME280;31649;46.510;6.498;2023-03-08T07:31:14;93905.16;;;3.86;58.50
45937;BME280;31649;46.510;6.498;2023-03-08T07:33:39;93899.28;;;4.02;58.22
45937;BME280;31649;46.510;6.498;2023-03-08T07:36:06;93910.63;;;4.26;58.14
45937;BME280;31649;46.510;6.498;2023-03-08T07:38:32;93919.03;;;4.53;57.69
45937;BME280;31649;46.510;6.498;2023-03-08T07:40:57;93929.69;;;4.84;57.76
45937;BME280;31649;46.510;6.498;2023-03-08T07:43:23;93933.25;;;5.08;57.52
45937;BME280;31649;46.510;6.498;2023-03-08T07:45:49;93935.97;;;5.31;57.55
45937;BME280;31649;46.510;6.498;2023-03-08T07:48:14;93925.16;;;5.44;57.38
45937;BME280;31649;46.510;6.498;2023-03-08T07:50:40;93919.81;;;5.54;57.52
45937;BME280;31649;46.510;6.498;2023-03-08T07:53:06;93920.78;;;5.62;57.80
45937;BME280;31649;46.510;6.498;2023-03-08T07:55:32;93924.53;;;5.34;56.57
45937;BME280;31649;46.510;6.498;2023-03-08T07:57:58;93926.16;;;5.27;57.44
45937;BME280;31649;46.510;6.498;2023-03-08T08:00:24;93931.47;;;5.17;56.52
45937;BME280;31649;46.510;6.498;2023-03-08T08:02:50;93930.34;;;5.03;55.76
45937;BME280;31649;46.510;6.498;2023-03-08T08:05:18;93925.19;;;5.03;55.81
45937;BME280;31649;46.510;6.498;2023-03-08T08:07:48;93937.91;;;5.04;55.54
45937;BME280;31649;46.510;6.498;2023-03-08T08:10:14;93939.53;;;4.97;55.60
45937;BME280;31649;46.510;6.498;2023-03-08T08:12:39;93935.31;;;5.04;56.67
45937;BME280;31649;46.510;6.498;2023-03-08T08:15:05;93934.53;;;5.12;55.70
45937;BME280;31649;46.510;6.498;2023-03-08T08:17:31;93932.25;;;5.26;56.08
45937;BME280;31649;46.510;6.498;2023-03-08T08:19:56;93936.31;;;5.20;55.35
45937;BME280;31649;46.510;6.498;2023-03-08T08:22:22;93924.88;;;5.22;54.39
45937;BME280;31649;46.510;6.498;2023-03-08T08:24:48;93924.34;;;5.27;54.80
45937;BME280;31649;46.510;6.498;2023-03-08T08:27:13;93920.03;;;5.19;55.01
45937;BME280;31649;46.510;6.498;2023-03-08T08:29:38;93919.72;;;5.22;54.98
45937;BME280;31649;46.510;6.498;2023-03-08T08:32:04;93914.88;;;5.19;55.21
45937;BME280;31649;46.510;6.498;2023-03-08T08:34:30;93922.94;;;5.08;54.72
45937;BME280;31649;46.510;6.498;2023-03-08T08:36:55;93912.94;;;5.13;55.35
45937;BME280;31649;46.510;6.498;2023-03-08T08:39:21;93907.59;;;5.23;55.29
45937;BME280;31649;46.510;6.498;2023-03-08T08:41:48;93901.66;;;5.39;55.41
45937;BME280;31649;46.510;6.498;2023-03-08T08:44:14;93900.16;;;5.53;56.04
45937;BME280;31649;46.510;6.498;2023-03-08T08:46:40;93906.50;;;5.91;56.02
45937;BME280;31649;46.510;6.498;2023-03-08T08:49:06;93894.44;;;6.23;55.94
45937;BME280;31649;46.510;6.498;2023-03-08T08:51:31;93896.41;;;6.45;55.71
45937;BME280;31649;46.510;6.498;2023-03-08T08:53:57;93904.88;;;6.62;56.48
45937;BME280;31649;46.510;6.498;2023-03-08T08:56:24;93897.34;;;6.76;56.39
45937;BME280;31649;46.510;6.498;2023-03-08T08:58:51;93894.38;;;6.87;55.59
45937;BME280;31649;46.510;6.498;2023-03-08T09:01:19;93890.09;;;6.94;55.06
45937;BME280;31649;46.510;6.498;2023-03-08T09:03:46;93907.69;;;6.99;55.28
45937;BME280;31649;46.510;6.498;2023-03-08T09:06:13;93899.41;;;7.04;55.18
45937;BME280;31649;46.510;6.498;2023-03-08T09:08:39;93900.31;;;7.11;55.66
45937;BME280;31649;46.510;6.498;2023-03-08T09:11:07;93895.75;;;7.13;55.51
45937;BME280;31649;46.510;6.498;2023-03-08T09:13:33;93897.38;;;7.14;55.24
45937;BME280;31649;46.510;6.498;2023-03-08T09:15:59;93899.66;;;7.09;54.77
45937;BME280;31649;46.510;6.498;2023-03-08T09:18:26;93888.69;;;7.07;55.51
45937;BME280;31649;46.510;6.498;2023-03-08T09:20:52;93887.22;;;7.13;55.97
45937;BME280;31649;46.510;6.498;2023-03-08T09:23:17;93885.16;;;7.08;55.69
45937;BME280;31649;46.510;6.498;2023-03-08T09:25:43;93880.06;;;7.00;55.04
45937;BME280;31649;46.510;6.498;2023-03-08T09:28:10;93886.38;;;6.97;55.90
45937;BME280;31649;46.510;6.498;2023-03-08T09:30:36;93891.09;;;6.93;55.65
45937;BME280;31649;46.510;6.498;2023-03-08T09:33:02;93879.59;;;6.96;55.81
45937;BME280;31649;46.510;6.498;2023-03-08T09:35:28;93886.63;;;6.87;55.43
45937;BME280;31649;46.510;6.498;2023-03-08T09:37:55;93876.78;;;6.82;54.74
45937;BME280;31649;46.510;6.498;2023-03-08T09:40:25;93880.81;;;6.85;55.88
45937;BME280;31649;46.510;6.498;2023-03-08T09:42:52;93870.75;;;6.90;56.20
45937;BME280;31649;46.510;6.498;2023-03-08T09:45:25;93870.22;;;6.95;56.46
45937;BME280;31649;46.510;6.498;2023-03-08T09:48:15;93860.34;;;6.99;57.40
45937;BME280;31649;46.510;6.498;2023-03-08T09:53:17;93844.97;;;7.20;56.95
45937;BME280;31649;46.510;6.498;2023-03-08T09:56:26;93847.19;;;7.39;55.73
45937;BME280;31649;46.510;6.498;2023-03-08T09:59:12;93832.22;;;7.49;55.73
45937;BME280;31649;46.510;6.498;2023-03-08T10:07:36;93816.25;;;7.61;55.18
45937;BME280;31649;46.510;6.498;2023-03-08T10:15:25;93800.72;;;7.61;55.08
45937;BME280;31649;46.510;6.498;2023-03-08T10:18:01;93802.59;;;7.67;54.92
45937;BME280;31649;46.510;6.498;2023-03-08T10:20:34;93797.66;;;7.72;54.88
45937;BME280;31649;46.510;6.498;2023-03-08T10:23:22;93792.75;;;7.77;54.86
45937;BME280;31649;46.510;6.498;2023-03-08T10:25:49;93794.44;;;7.85;54.70
45937;BME280;31649;46.510;6.498;2023-03-08T10:28:20;93786.91;;;7.90;54.58
45937;BME280;31649;46.510;6.498;2023-03-08T10:30:54;93785.63;;;8.01;54.29
45937;BME280;31649;46.510;6.498;2023-03-08T10:33:24;93783.47;;;8.05;53.90
45937;BME280;31649;46.510;6.498;2023-03-08T10:38:23;93776.78;;;8.11;54.07
45937;BME280;31649;46.510;6.498;2023-03-08T10:40:59;93762.84;;;8.12;54.26
45937;BME280;31649;46.510;6.498;2023-03-08T10:43:26;93765.22;;;8.13;54.13
45937;BME280;31649;46.510;6.498;2023-03-08T10:46:12;93753.28;;;8.12;54.07
45937;BME280;31649;46.510;6.498;2023-03-08T10:48:38;93746.19;;;8.21;54.45
45937;BME280;31649;46.510;6.498;2023-03-08T10:51:13;93737.00;;;8.19;52.89
45937;BME280;31649;46.510;6.498;2023-03-08T10:54:00;93739.53;;;8.34;54.23
45937;BME280;31649;46.510;6.498;2023-03-08T10:58:56;93723.19;;;8.33;53.39
45937;BME280;31649;46.510;6.498;2023-03-08T11:01:28;93718.34;;;8.30;53.89
45937;BME280;31649;46.510;6.498;2023-03-08T11:04:04;93722.53;;;8.03;51.25
45937;BME280;31649;46.510;6.498;2023-03-08T11:06:31;93707.13;;;7.57;51.16
45937;BME280;31649;46.510;6.498;2023-03-08T11:09:02;93705.34;;;7.58;52.46
45937;BME280;31649;46.510;6.498;2023-03-08T11:11:39;93697.59;;;7.80;52.76
45937;BME280;31649;46.510;6.498;2023-03-08T11:14:08;93704.25;;;7.89;52.97
45937;BME280;31649;46.510;6.498;2023-03-08T11:24:57;93678.78;;;7.93;53.09
45937;BME280;31649;46.510;6.498;2023-03-08T11:36:13;93661.59;;;7.85;52.63
45937;BME280;31649;46.510;6.498;2023-03-08T11:38:41;93663.09;;;7.94;52.42
45937;BME280;31649;46.510;6.498;2023-03-08T11:41:24;93654.75;;;7.99;52.73
45937;BME280;31649;46.510;6.498;2023-03-08T11:50:08;93639.28;;;8.06;53.37
45937;BME280;31649;46.510;6.498;2023-03-08T11:55:44;93624.25;;;7.94;53.86
45937;BME280;31649;46.510;6.498;2023-03-08T12:01:08;93621.28;;;8.26;56.26
45937;BME280;31649;46.510;6.498;2023-03-08T12:03:39;93615.44;;;8.46;56.03
45937;BME280;31649;46.510;6.498;2023-03-08T12:06:22;93596.31;;;8.47;54.35
45937;BME280;31649;46.510;6.498;2023-03-08T12:08:58;93596.16;;;8.55;54.74
45937;BME280;31649;46.510;6.498;2023-03-08T12:11:28;93598.44;;;8.65;55.05
45937;BME280;31649;46.510;6.498;2023-03-08T12:14:23;93587.03;;;8.59;54.10
45937;BME280;31649;46.510;6.498;2023-03-08T12:16:55;93583.06;;;8.64;53.93
45937;BME280;31649;46.510;6.498;2023-03-08T12:19:27;93582.91;;;8.65;53.71
45937;BME280;31649;46.510;6.498;2023-03-08T12:25:11;93576.66;;;8.59;53.07
45937;BME280;31649;46.510;6.498;2023-03-08T12:30:22;93574.28;;;8.58;53.52
45937;BME280;31649;46.510;6.498;2023-03-08T12:32:50;93570.22;;;8.48;53.71
45937;BME280;31649;46.510;6.498;2023-03-08T12:35:33;93558.84;;;8.50;53.79
45937;BME280;31649;46.510;6.498;2023-03-08T12:38:28;93551.28;;;8.48;53.85
45937;BME280;31649;46.510;6.498;2023-03-08T12:40:54;93559.44;;;8.45;54.35
45937;BME280;31649;46.510;6.498;2023-03-08T12:45:47;93557.38;;;8.33;55.10
45937;BME280;31649;46.510;6.498;2023-03-08T12:48:29;93547.63;;;8.35;55.35
45937;BME280;31649;46.510;6.498;2023-03-08T12:56:35;93523.56;;;8.42;55.49
45937;BME280;31649;46.510;6.498;2023-03-08T13:01:45;93531.53;;;8.47;55.47
45937;BME280;31649;46.510;6.498;2023-03-08T13:04:35;93536.72;;;8.47;55.64
45937;BME280;31649;46.510;6.498;2023-03-08T13:14:57;93510.81;;;8.47;55.69
45937;BME280;31649;46.510;6.498;2023-03-08T13:18:25;93501.03;;;8.42;55.64
45937;BME280;31649;46.510;6.498;2023-03-08T13:20:44;93489.47;;;8.45;56.90
45937;BME280;31649;46.510;6.498;2023-03-08T13:26:15;93494.81;;;8.30;55.98
45937;BME280;31649;46.510;6.498;2023-03-08T13:28:44;93501.59;;;7.38;56.33
45937;BME280;31649;46.510;6.498;2023-03-08T13:31:15;93506.53;;;6.73;57.88
45937;BME280;31649;46.510;6.498;2023-03-08T13:33:45;93513.28;;;6.90;58.15
45937;BME280;31649;46.510;6.498;2023-03-08T13:36:24;93507.31;;;7.33;57.22
45937;BME280;31649;46.510;6.498;2023-03-08T13:39:02;93511.47;;;7.56;56.61
45937;BME280;31649;46.510;6.498;2023-03-08T13:44:11;93488.72;;;7.80;56.72
45937;BME280;31649;46.510;6.498;2023-03-08T13:46:38;93480.97;;;7.80;56.45
45937;BME280;31649;46.510;6.498;2023-03-08T13:51:58;93481.63;;;7.89;56.46
45937;BME280;31649;46.510;6.498;2023-03-08T13:54:35;93475.88;;;7.94;56.84
45937;BME280;31649;46.510;6.498;2023-03-08T13:57:06;93451.56;;;7.88;54.93
45937;BME280;31649;46.510;6.498;2023-03-08T13:59:53;93450.88;;;7.72;55.40
45937;BME280;31649;46.510;6.498;2023-03-08T14:02:25;93452.31;;;7.46;56.48
45937;BME280;31649;46.510;6.498;2023-03-08T14:04:51;93464.44;;;7.46;56.72
